createdAt,value
2019-04-13T00:02:00.943Z,10.80
2019-04-13T00:04:32.160Z,10.80
2019-04-13T00:07:01.344Z,10.40
2019-04-13T00:09:30.539Z,11.03
2019-04-13T00:12:04.665Z,10.30
2019-04-13T00:14:35.399Z,10.43
2019-04-13T00:17:06.960Z,11.00
2019-04-13T00:19:36.420Z,11.00
2019-04-13T00:22:05.983Z,10.10
2019-04-13T00:24:35.516Z,10.77
2019-04-13T00:27:05.116Z,10.63
2019-04-13T00:29:34.562Z,10.13
2019-04-13T00:32:03.742Z,11.37
2019-04-13T00:34:41.359Z,9.70
2019-04-13T00:37:04.712Z,10.40
2019-04-13T00:39:34.285Z,9.67
2019-04-13T00:42:03.826Z,10.80
2019-04-13T00:44:33.359Z,11.17
2019-04-13T00:47:02.895Z,11.35
2019-04-13T00:49:33.722Z,9.20
2019-04-13T00:52:03.056Z,10.20
2019-04-13T00:54:32.532Z,10.30
2019-04-13T00:57:01.855Z,10.30
2019-04-13T00:59:31.452Z,9.93
2019-04-13T01:02:01.054Z,10.30
2019-04-13T01:04:30.610Z,10.50
2019-04-13T01:07:00.145Z,10.55
2019-04-13T01:09:29.388Z,10.03
2019-04-13T01:11:58.985Z,10.80
2019-04-13T01:14:28.468Z,10.43
2019-04-13T01:16:57.936Z,12.17
2019-04-13T01:19:27.489Z,11.10
2019-04-13T01:21:57.059Z,11.03
2019-04-13T01:24:26.539Z,10.50
2019-04-13T01:26:55.712Z,10.50
2019-04-13T01:29:25.364Z,11.80
2019-04-13T01:31:54.629Z,11.00
2019-04-13T01:34:24.110Z,10.63
2019-04-13T01:36:54.616Z,12.00
2019-04-13T01:39:24.218Z,10.57
2019-04-13T01:41:53.369Z,10.53
2019-04-13T01:44:22.573Z,10.70
2019-04-13T01:46:52.062Z,10.63
2019-04-13T01:49:21.714Z,11.13
2019-04-13T01:51:51.297Z,10.90
2019-04-13T01:54:20.955Z,10.33
2019-04-13T01:56:50.564Z,10.60
2019-04-13T01:59:20.285Z,11.47
2019-04-13T02:01:51.305Z,10.30
2019-04-13T02:04:22.615Z,10.40
2019-04-13T02:06:56.018Z,10.30
2019-04-13T02:09:26.907Z,11.03
2019-04-13T02:11:56.367Z,10.30
2019-04-13T02:14:25.869Z,10.27
2019-04-13T02:16:55.059Z,10.50
2019-04-13T02:19:24.890Z,11.20
2019-04-13T02:21:54.434Z,11.03
2019-04-13T02:24:23.621Z,11.50
2019-04-13T02:26:52.901Z,10.32
2019-04-13T02:29:22.360Z,11.10
2019-04-13T02:31:51.933Z,10.48
2019-04-13T02:34:21.387Z,10.40
2019-04-13T02:36:50.832Z,11.50
2019-04-13T02:39:20.399Z,12.33
2019-04-13T02:41:49.882Z,11.75
2019-04-13T02:44:19.941Z,11.37
2019-04-13T02:46:49.570Z,11.90
2019-04-13T02:49:18.926Z,12.17
2019-04-13T02:51:48.471Z,11.37
2019-04-13T02:54:17.966Z,11.73
2019-04-13T02:56:47.524Z,11.77
2019-04-13T02:59:17.226Z,11.53
2019-04-13T03:01:46.778Z,10.97
2019-04-13T03:04:16.415Z,11.60
2019-04-13T03:06:45.956Z,12.20
2019-04-13T03:09:17.224Z,11.77
2019-04-13T03:11:48.552Z,11.97
2019-04-13T03:14:18.881Z,12.10
2019-04-13T03:16:50.100Z,11.70
2019-04-13T03:19:21.111Z,12.00
2019-04-13T03:21:50.749Z,11.87
2019-04-13T03:24:20.180Z,12.20
2019-04-13T03:26:49.834Z,12.67
2019-04-13T03:29:19.457Z,12.37
2019-04-13T03:31:49.098Z,12.20
2019-04-13T03:34:18.618Z,11.37
2019-04-13T03:36:48.220Z,11.93
2019-04-13T03:39:17.756Z,12.05
2019-04-13T03:41:47.318Z,11.80
2019-04-13T03:44:16.778Z,11.77
2019-04-13T03:46:46.315Z,11.90
2019-04-13T03:49:15.500Z,12.13
2019-04-13T03:51:45.073Z,12.57
2019-04-13T03:54:14.622Z,13.20
2019-04-13T03:56:44.000Z,13.87
2019-04-13T03:59:13.759Z,12.37
2019-04-13T04:01:45.634Z,12.30
2019-04-13T04:04:15.239Z,12.27
2019-04-13T04:06:44.703Z,12.30
2019-04-13T04:09:14.251Z,12.93
2019-04-13T04:11:43.789Z,12.20
2019-04-13T04:14:13.112Z,12.47
2019-04-13T04:16:42.816Z,12.13
2019-04-13T04:19:12.287Z,12.07
2019-04-13T04:21:41.915Z,12.53
2019-04-13T04:24:10.947Z,12.83
2019-04-13T04:26:40.501Z,12.33
2019-04-13T04:29:09.785Z,11.93
2019-04-13T04:31:39.055Z,11.83
2019-04-13T04:34:08.612Z,11.50
2019-04-13T04:36:38.150Z,12.07
2019-04-13T04:39:07.763Z,13.23
2019-04-13T04:41:37.512Z,13.30
2019-04-13T04:44:06.996Z,12.90
2019-04-13T04:46:36.459Z,11.55
2019-04-13T04:49:05.941Z,12.33
2019-04-13T04:51:35.433Z,12.20
2019-04-13T04:54:04.996Z,12.30
2019-04-13T04:56:34.455Z,12.63
2019-04-13T04:59:04.095Z,13.13
2019-04-13T05:01:33.552Z,12.90
2019-04-13T05:04:03.178Z,13.10
2019-04-13T05:06:35.702Z,12.27
2019-04-13T05:09:05.546Z,12.97
2019-04-13T05:11:35.001Z,13.70
2019-04-13T05:14:04.494Z,12.33
2019-04-13T05:16:34.041Z,13.37
2019-04-13T05:19:03.686Z,12.13
2019-04-13T05:21:33.145Z,12.60
2019-04-13T05:24:02.499Z,13.97
2019-04-13T05:26:31.661Z,12.53
2019-04-13T05:29:01.307Z,13.03
2019-04-13T05:31:30.585Z,12.57
2019-04-13T05:34:00.259Z,14.13
2019-04-13T05:36:29.786Z,13.30
2019-04-13T05:38:59.400Z,13.77
2019-04-13T05:41:28.995Z,13.23
2019-04-13T05:43:58.487Z,13.07
2019-04-13T05:46:27.976Z,13.30
2019-04-13T05:48:57.138Z,13.23
2019-04-13T05:51:26.398Z,12.97
2019-04-13T05:53:55.476Z,13.20
2019-04-13T05:56:24.799Z,12.97
2019-04-13T05:59:02.981Z,12.00
2019-04-13T06:01:25.581Z,13.73
2019-04-13T06:03:56.304Z,14.03
2019-04-13T06:06:25.776Z,13.40
2019-04-13T06:08:55.231Z,13.97
2019-04-13T06:11:24.698Z,13.37
2019-04-13T06:13:57.838Z,13.37
2019-04-13T06:16:25.344Z,13.73
2019-04-13T06:18:54.980Z,12.70
2019-04-13T06:21:24.893Z,12.30
2019-04-13T06:23:54.896Z,13.57
2019-04-13T06:26:24.877Z,13.00
2019-04-13T06:28:54.821Z,13.00
2019-04-13T06:31:26.259Z,13.55
2019-04-13T06:33:56.640Z,13.00
2019-04-13T06:36:26.182Z,13.10
2019-04-13T06:38:59.464Z,13.23
2019-04-13T06:41:27.426Z,12.90
2019-04-13T06:43:58.582Z,13.93
2019-04-13T06:46:28.110Z,13.00
2019-04-13T06:48:57.331Z,12.33
2019-04-13T06:51:26.160Z,12.67
2019-04-13T06:53:55.414Z,13.87
2019-04-13T06:56:24.762Z,12.93
2019-04-13T06:58:56.012Z,13.70
2019-04-13T07:01:25.437Z,13.50
2019-04-13T07:03:57.000Z,13.30
2019-04-13T07:06:26.496Z,13.37
2019-04-13T07:09:04.111Z,12.20
2019-04-13T07:11:35.376Z,12.55
2019-04-13T07:14:06.313Z,12.90
2019-04-13T07:16:43.950Z,12.17
2019-04-13T07:19:13.663Z,13.57
2019-04-13T07:21:43.165Z,13.03
2019-04-13T07:24:12.883Z,12.98
2019-04-13T07:26:42.409Z,13.00
2019-04-13T07:29:12.975Z,12.28
2019-04-13T07:31:42.484Z,13.90
2019-04-13T07:34:12.087Z,12.93
2019-04-13T07:36:42.223Z,13.22
2019-04-13T07:39:11.783Z,12.47
2019-04-13T07:41:41.362Z,13.40
2019-04-13T07:44:12.578Z,12.33
2019-04-13T07:46:43.816Z,12.50
2019-04-13T07:49:15.188Z,12.70
2019-04-13T07:51:44.484Z,13.27
2019-04-13T07:54:14.044Z,13.18
2019-04-13T07:56:43.512Z,14.70
2019-04-13T07:59:12.981Z,12.17
2019-04-13T08:01:42.501Z,13.00
2019-04-13T08:04:12.075Z,12.87
2019-04-13T08:06:41.602Z,13.03
2019-04-13T08:09:11.364Z,12.80
2019-04-13T08:11:41.115Z,13.53
2019-04-13T08:14:12.486Z,12.80
2019-04-13T08:16:42.041Z,13.27
2019-04-13T08:19:13.438Z,12.87
2019-04-13T08:21:44.470Z,13.20
2019-04-13T08:24:14.059Z,12.87
2019-04-13T08:26:43.579Z,12.53
2019-04-13T08:29:13.172Z,13.53
2019-04-13T08:31:43.723Z,12.80
2019-04-13T08:34:13.275Z,12.73
2019-04-13T08:36:42.804Z,12.50
2019-04-13T08:39:14.447Z,13.10
2019-04-13T08:41:43.354Z,12.98
2019-04-13T08:44:13.133Z,12.57
2019-04-13T08:46:42.549Z,13.27
2019-04-13T08:49:12.042Z,11.67
2019-04-13T08:51:41.604Z,13.22
2019-04-13T08:54:11.191Z,13.10
2019-04-13T08:56:40.805Z,12.37
2019-04-13T08:59:10.569Z,12.53
2019-04-13T09:01:40.037Z,13.00
2019-04-13T09:04:10.039Z,12.70
2019-04-13T09:06:39.519Z,12.77
2019-04-13T09:09:09.412Z,11.93
2019-04-13T09:12:49.837Z,11.80
2019-04-13T09:35:05.960Z,12.97
2019-04-13T09:37:35.503Z,13.25
2019-04-13T09:45:44.904Z,11.80
2019-04-13T10:02:18.318Z,10.43
2019-04-13T10:07:41.200Z,10.45
2019-04-13T10:18:43.472Z,10.83
2019-04-13T10:32:30.854Z,12.20
2019-04-13T10:34:58.565Z,10.87
2019-04-13T10:48:46.875Z,11.80
2019-04-13T10:51:20.494Z,11.47
2019-04-13T10:53:49.725Z,11.20
2019-04-13T10:56:19.363Z,11.80
2019-04-13T10:58:49.095Z,11.17
2019-04-13T11:01:18.266Z,11.40
2019-04-13T11:09:28.889Z,11.43
2019-04-13T11:11:58.332Z,11.50
2019-04-13T11:22:59.125Z,10.30
2019-04-13T11:28:16.015Z,11.63
2019-04-13T11:30:45.522Z,11.50
2019-04-13T11:33:15.136Z,12.30
2019-04-13T11:50:01.855Z,10.67
2019-04-13T12:12:19.365Z,10.50
2019-04-13T12:26:14.057Z,10.97
2019-04-13T12:31:32.637Z,11.30
2019-04-13T12:34:03.386Z,10.85
2019-04-13T12:59:03.904Z,11.70
2019-04-13T13:18:37.047Z,12.47
2019-04-13T13:26:48.494Z,11.83
2019-04-13T13:32:05.149Z,11.23
2019-04-13T13:37:23.660Z,11.00
2019-04-13T13:56:45.870Z,11.77
2019-04-13T14:02:05.583Z,12.25
2019-04-13T14:24:17.480Z,11.50
2019-04-13T14:26:47.091Z,11.50
2019-04-13T14:29:16.737Z,11.63
2019-04-13T14:31:46.325Z,11.57
2019-04-13T14:34:16.308Z,11.70
2019-04-13T14:42:22.981Z,10.80
2019-04-13T15:04:40.479Z,11.30
2019-04-13T15:07:07.629Z,11.37
2019-04-13T15:18:04.696Z,11.60
2019-04-13T15:23:25.556Z,10.03
2019-04-13T15:56:53.027Z,11.07
2019-04-13T15:59:22.250Z,12.47
2019-04-13T16:04:43.096Z,11.83
2019-04-13T16:07:12.283Z,12.73
2019-04-13T16:09:43.588Z,12.67
2019-04-13T16:17:53.836Z,11.63
2019-04-13T16:20:23.636Z,11.93
2019-04-13T16:22:53.687Z,12.13
2019-04-13T16:36:52.718Z,11.10
2019-04-13T16:39:23.625Z,11.00
2019-04-13T16:44:47.049Z,10.90
2019-04-13T17:49:49.160Z,15.00
2019-04-13T17:52:21.287Z,15.98
2019-04-13T18:09:10.094Z,16.82
2019-04-13T18:11:41.244Z,17.03
2019-04-13T18:14:13.076Z,14.80
2019-04-13T18:28:02.182Z,15.47
2019-04-13T18:30:36.162Z,16.70
2019-04-13T18:35:52.727Z,15.27
2019-04-13T18:38:23.216Z,16.10
2019-04-13T18:43:41.574Z,16.48
2019-04-13T19:17:10.183Z,20.80
2019-04-13T19:22:28.996Z,18.33
2019-04-13T19:36:14.555Z,16.53
2019-04-13T19:47:11.115Z,18.13
2019-04-13T19:58:11.013Z,17.90
2019-04-13T20:03:30.496Z,19.33
2019-04-13T20:06:00.644Z,17.60
2019-04-13T20:08:30.211Z,18.73
2019-04-13T20:10:59.795Z,19.40
2019-04-13T20:13:40.316Z,18.63
2019-04-13T20:44:15.884Z,22.20
2019-04-13T20:57:58.962Z,21.57
2019-04-13T21:00:29.164Z,24.57
2019-04-13T21:02:59.038Z,22.30
2019-04-13T21:07:07.815Z,22.77
2019-04-13T21:13:36.319Z,24.37
2019-04-13T21:32:58.088Z,22.23
2019-04-13T22:09:28.208Z,22.25
2019-04-13T22:17:29.281Z,21.17
2019-04-13T22:19:59.352Z,20.25
2019-04-13T22:22:29.259Z,22.77
2019-04-13T22:27:55.635Z,21.93
2019-04-13T22:33:08.876Z,21.00
2019-04-13T22:41:19.968Z,20.67
2019-04-13T22:43:50.225Z,22.80
2019-04-13T23:45:40.171Z,23.70
2019-04-13T23:48:09.236Z,24.10
2019-04-13T23:50:39.462Z,24.50
